Time;durP1;ratioP1;P1;durP2;ratioP2;P2;SDS_P1;SDS_P2;PMS_P1;PMS_P2;Temp;Humidity;BMP_temperature;BMP_pressure;BME280_temperature;BME280_humidity;BME280_pressure;Samples;Min_cycle;Max_cycle;Signal;HPM_P1;HPM_P2
2021/12/25 00:00:10;;;;;;;10.83;8.23;;;7.20;99.90;;;;;;4994625;28;20187;-36
2021/12/25 00:02:36;;;;;;;10.57;7.60;;;7.20;99.90;;;;;;5011393;28;20234;-35
2021/12/25 00:05:04;;;;;;;10.60;7.77;;;7.20;99.90;;;;;;5010947;28;20219;-35
2021/12/25 00:07:32;;;;;;;10.33;7.67;;;7.20;99.90;;;;;;5011440;28;20183;-36
2021/12/25 00:09:58;;;;;;;9.40;7.27;;;7.10;99.90;;;;;;5011608;28;20690;-36
2021/12/25 00:12:25;;;;;;;9.20;6.77;;;7.10;99.90;;;;;;5011382;28;20195;-36
2021/12/25 00:14:51;;;;;;;10.17;7.10;;;7.10;99.90;;;;;;5012391;28;20206;-36
2021/12/25 00:17:17;;;;;;;10.30;6.83;;;7.10;99.90;;;;;;5011578;28;20194;-35
2021/12/25 00:19:43;;;;;;;7.80;6.33;;;7.00;99.90;;;;;;5011904;28;20190;-35
2021/12/25 00:22:10;;;;;;;9.17;7.03;;;7.00;99.90;;;;;;5011281;28;20183;-37
2021/12/25 00:24:41;;;;;;;9.10;6.43;;;7.00;99.90;;;;;;5010894;28;20203;-38
2021/12/25 00:27:23;;;;;;;9.33;6.67;;;7.00;99.90;;;;;;5012594;28;20171;-35
2021/12/25 00:29:56;;;;;;;8.60;6.73;;;7.00;99.90;;;;;;5011785;28;20167;-36
2021/12/25 00:34:49;;;;;;;10.77;7.90;;;7.00;99.90;;;;;;5027121;28;20222;-36
2021/12/25 00:37:16;;;;;;;10.10;7.73;;;7.00;99.90;;;;;;5010952;28;20179;-36
2021/12/25 00:39:43;;;;;;;9.93;8.03;;;7.00;99.90;;;;;;5011164;28;20175;-36
2021/12/25 00:42:10;;;;;;;10.53;7.90;;;7.00;99.90;;;;;;5010760;28;20183;-36
2021/12/25 00:44:37;;;;;;;11.47;8.07;;;7.00;99.90;;;;;;5011028;28;20211;-36
2021/12/25 00:47:04;;;;;;;9.33;6.80;;;7.00;99.90;;;;;;5010345;28;20186;-35
2021/12/25 00:49:30;;;;;;;9.83;7.30;;;7.00;99.90;;;;;;5010740;28;20183;-37
2021/12/25 00:51:56;;;;;;;11.93;8.70;;;7.00;99.90;;;;;;5010415;28;20199;-35
2021/12/25 00:54:22;;;;;;;10.10;8.40;;;6.90;99.90;;;;;;5010291;28;20225;-35
2021/12/25 00:56:48;;;;;;;11.57;8.63;;;7.00;99.90;;;;;;5026631;28;20210;-36
2021/12/25 00:59:15;;;;;;;10.67;7.87;;;6.90;99.90;;;;;;5027332;28;20211;-37
2021/12/25 01:01:41;;;;;;;11.57;7.70;;;6.90;99.90;;;;;;5027787;28;20244;-35
2021/12/25 01:04:08;;;;;;;10.53;7.60;;;6.90;99.90;;;;;;5027579;28;20211;-35
2021/12/25 01:06:34;;;;;;;11.17;7.93;;;6.90;99.90;;;;;;5027412;28;20274;-35
2021/12/25 01:09:04;;;;;;;9.70;7.40;;;6.90;99.90;;;;;;5027150;28;20183;-37
2021/12/25 01:11:31;;;;;;;10.23;8.03;;;6.90;99.90;;;;;;5027298;28;20199;-35
2021/12/25 01:14:05;;;;;;;8.97;7.50;;;6.90;99.90;;;;;;5028021;28;20577;-35
2021/12/25 01:28:24;;;;;;;11.27;8.00;;;6.90;99.90;;;;;;5026670;28;20184;-35
2021/12/25 01:30:50;;;;;;;11.00;7.93;;;6.90;99.90;;;;;;5027182;28;20205;-35
2021/12/25 01:47:51;;;;;;;12.93;9.10;;;6.90;99.90;;;;;;5010927;28;20182;-36
2021/12/25 01:50:20;;;;;;;14.33;9.37;;;6.90;99.90;;;;;;5027850;28;20180;-35
2021/12/25 01:52:46;;;;;;;12.70;8.80;;;6.90;99.90;;;;;;5010295;28;20219;-35
2021/12/25 01:55:26;;;;;;;12.10;8.90;;;6.90;99.90;;;;;;4994542;28;20286;-35
2021/12/25 01:57:54;;;;;;;12.43;9.17;;;6.90;99.90;;;;;;5026624;28;20182;-35
2021/12/25 02:00:32;;;;;;;13.03;9.27;;;6.80;99.90;;;;;;5013533;28;20240;-35
2021/12/25 02:02:58;;;;;;;11.80;9.03;;;6.80;99.90;;;;;;5015062;28;20221;-37
2021/12/25 02:05:24;;;;;;;13.37;8.70;;;6.80;99.90;;;;;;5013763;28;20217;-35
2021/12/25 02:07:51;;;;;;;15.87;9.03;;;6.80;99.90;;;;;;5031013;28;20186;-37
2021/12/25 02:10:18;;;;;;;13.13;9.17;;;6.80;99.90;;;;;;5030476;28;20219;-36
2021/12/25 02:12:47;;;;;;;11.90;9.70;;;6.80;99.90;;;;;;5013989;28;20211;-36
2021/12/25 02:15:18;;;;;;;11.97;9.40;;;6.80;99.90;;;;;;5013357;28;20566;-36
2021/12/25 02:21:17;;;;;;;13.13;9.63;;;6.80;99.90;;;;;;4958140;28;20185;-35
2021/12/25 02:23:44;;;;;;;12.97;9.40;;;6.80;99.90;;;;;;5026936;28;20187;-35
2021/12/25 02:26:10;;;;;;;13.93;9.30;;;6.80;99.90;;;;;;5013391;28;20179;-39
2021/12/25 02:28:37;;;;;;;14.33;9.20;;;6.80;99.90;;;;;;5013865;28;20187;-37
2021/12/25 02:31:06;;;;;;;13.17;9.10;;;6.80;99.90;;;;;;5013867;28;20218;-35
2021/12/25 02:33:32;;;;;;;13.60;9.37;;;6.80;99.90;;;;;;5012886;28;20176;-36
2021/12/25 02:35:59;;;;;;;13.40;9.50;;;6.80;99.90;;;;;;5013359;28;20639;-36
2021/12/25 02:38:26;;;;;;;15.33;11.23;;;6.80;99.90;;;;;;5013799;28;20179;-36
2021/12/25 02:40:53;;;;;;;16.73;10.50;;;6.80;99.90;;;;;;5029669;28;20176;-35
2021/12/25 02:43:19;;;;;;;14.07;10.77;;;6.80;99.90;;;;;;5013808;28;20203;-36
2021/12/25 02:45:46;;;;;;;15.47;10.40;;;6.80;99.90;;;;;;4996355;28;20208;-35
2021/12/25 02:48:16;;;;;;;17.80;11.10;;;6.80;99.90;;;;;;5014318;28;20179;-35
2021/12/25 02:50:43;;;;;;;14.37;9.70;;;6.80;99.90;;;;;;5029367;28;20186;-35
2021/12/25 02:53:11;;;;;;;14.50;9.87;;;6.80;99.90;;;;;;5013127;28;20269;-36
2021/12/25 02:55:40;;;;;;;13.10;9.57;;;6.80;99.90;;;;;;5013303;28;20266;-35
2021/12/25 02:58:07;;;;;;;13.70;9.57;;;6.80;99.90;;;;;;5013021;28;20217;-37
2021/12/25 03:00:50;;;;;;;14.90;9.83;;;6.80;99.90;;;;;;5013416;28;20214;-36
2021/12/25 03:03:17;;;;;;;13.27;9.77;;;6.70;99.90;;;;;;5012396;28;20175;-36
2021/12/25 03:05:44;;;;;;;14.30;9.80;;;6.70;99.90;;;;;;5012503;28;20283;-35
2021/12/25 03:08:12;;;;;;;13.00;9.30;;;6.70;99.90;;;;;;5012367;28;20175;-36
2021/12/25 03:10:53;;;;;;;15.17;10.53;;;6.70;99.90;;;;;;5012154;28;20183;-36
2021/12/25 03:16:09;;;;;;;14.97;10.53;;;6.70;99.90;;;;;;5029184;28;20183;-35
2021/12/25 03:18:44;;;;;;;14.03;9.67;;;6.60;99.90;;;;;;4996400;28;20258;-35
2021/12/25 03:21:10;;;;;;;13.73;10.10;;;6.60;99.90;;;;;;5013190;28;20177;-36
2021/12/25 03:23:36;;;;;;;16.00;11.57;;;6.60;99.90;;;;;;4995722;28;20188;-36
2021/12/25 03:26:04;;;;;;;15.87;10.83;;;6.50;99.90;;;;;;4995450;28;20175;-36
2021/12/25 03:28:33;;;;;;;16.87;11.73;;;6.60;99.90;;;;;;4996377;28;20181;-35
2021/12/25 03:31:04;;;;;;;17.77;12.03;;;6.60;99.90;;;;;;4995758;28;20207;-36
2021/12/25 03:33:30;;;;;;;16.77;11.83;;;6.60;99.90;;;;;;5029463;28;20179;-36
2021/12/25 03:35:58;;;;;;;17.77;12.30;;;6.60;99.90;;;;;;4996882;28;20263;-36
2021/12/25 03:38:26;;;;;;;17.00;11.77;;;6.60;99.90;;;;;;5029691;28;20184;-36
2021/12/25 03:40:53;;;;;;;19.50;13.13;;;6.60;99.90;;;;;;5028294;28;20192;-36
2021/12/25 03:43:19;;;;;;;18.13;12.00;;;6.60;99.90;;;;;;4994525;28;20182;-35
2021/12/25 03:45:46;;;;;;;16.50;11.87;;;6.60;99.90;;;;;;4975569;28;20238;-35
2021/12/25 03:59:01;;;;;;;15.23;11.77;;;6.60;99.90;;;;;;5008738;28;20222;-35
2021/12/25 04:01:40;;;;;;;16.30;12.43;;;6.60;99.90;;;;;;5008371;28;20211;-36
2021/12/25 04:06:45;;;;;;;18.70;12.87;;;6.60;99.90;;;;;;5008199;28;20183;-36
2021/12/25 04:09:22;;;;;;;18.67;12.90;;;6.60;99.90;;;;;;5008809;28;20179;-35
2021/12/25 04:11:48;;;;;;;19.27;13.03;;;6.60;99.90;;;;;;4993826;28;20218;-35
2021/12/25 04:14:14;;;;;;;20.97;13.93;;;6.60;99.90;;;;;;4975358;28;20204;-35
2021/12/25 04:16:41;;;;;;;20.17;14.47;;;6.60;99.90;;;;;;4975108;28;20186;-36
2021/12/25 04:19:07;;;;;;;21.30;14.47;;;6.60;99.90;;;;;;4975462;28;20232;-36
2021/12/25 04:21:35;;;;;;;20.30;15.20;;;6.60;99.90;;;;;;4991742;28;20190;-36
2021/12/25 04:24:02;;;;;;;21.83;13.60;;;6.70;99.90;;;;;;4975373;28;20656;-35
2021/12/25 04:26:28;;;;;;;24.90;15.93;;;6.70;99.90;;;;;;4975075;28;20184;-36
2021/12/25 05:04:31;;;;;;;15.43;11.37;;;6.50;99.90;;;;;;5011873;28;20276;-37
2021/12/25 05:07:04;;;;;;;19.37;13.00;;;6.50;99.90;;;;;;5026023;28;20183;-36
2021/12/25 05:09:31;;;;;;;19.20;13.87;;;6.50;99.90;;;;;;5026978;28;20193;-37
2021/12/25 05:11:57;;;;;;;19.23;13.50;;;6.50;99.90;;;;;;5026638;28;20218;-37
2021/12/25 05:14:23;;;;;;;20.43;13.33;;;6.50;99.90;;;;;;5010146;28;20264;-36
2021/12/25 05:16:52;;;;;;;23.37;15.73;;;6.40;99.90;;;;;;5026429;28;20183;-36
2021/12/25 05:19:18;;;;;;;22.77;16.10;;;6.40;99.90;;;;;;4993969;28;20202;-37
2021/12/25 05:21:45;;;;;;;23.37;15.13;;;6.40;99.90;;;;;;5010366;28;20225;-36
2021/12/25 05:24:12;;;;;;;21.77;15.33;;;6.40;99.90;;;;;;4993763;28;20202;-36
2021/12/25 05:26:44;;;;;;;21.23;14.90;;;6.30;99.90;;;;;;5012124;28;20202;-38
2021/12/25 05:29:10;;;;;;;20.03;14.03;;;6.30;99.90;;;;;;5014794;28;20186;-37
2021/12/25 05:31:37;;;;;;;21.83;14.47;;;6.30;99.90;;;;;;5009460;28;20213;-39
2021/12/25 05:34:32;;;;;;;24.03;14.90;;;6.30;99.90;;;;;;5000019;28;20217;-37
2021/12/25 05:37:19;;;;;;;21.17;14.50;;;6.30;99.90;;;;;;5027470;28;20183;-36
2021/12/25 05:39:51;;;;;;;20.63;14.33;;;6.30;99.90;;;;;;5014081;28;20186;-36
2021/12/25 05:42:22;;;;;;;22.73;14.50;;;6.30;99.90;;;;;;5013842;28;20179;-36
2021/12/25 05:44:51;;;;;;;20.33;13.80;;;6.30;99.90;;;;;;5013825;28;20211;-36
2021/12/25 05:47:22;;;;;;;19.47;12.80;;;6.30;99.90;;;;;;5015154;28;20191;-36
2021/12/25 05:49:53;;;;;;;16.87;12.47;;;6.30;99.90;;;;;;4997749;28;20190;-36
2021/12/25 05:52:29;;;;;;;20.30;12.93;;;6.30;99.90;;;;;;4998815;28;20207;-37
2021/12/25 05:55:13;;;;;;;19.20;13.30;;;6.30;99.90;;;;;;5013529;28;20285;-37
2021/12/25 05:58:03;;;;;;;18.47;12.83;;;6.30;99.90;;;;;;5014974;28;20184;-37
2021/12/25 06:00:52;;;;;;;16.60;11.63;;;6.30;99.90;;;;;;4999823;28;20266;-36
2021/12/25 06:03:17;;;;;;;20.67;12.23;;;6.30;99.90;;;;;;4996857;28;20179;-36
2021/12/25 06:05:44;;;;;;;18.90;12.10;;;6.30;99.90;;;;;;4996751;28;20207;-36
2021/12/25 06:08:11;;;;;;;18.90;12.17;;;6.30;99.90;;;;;;5013123;28;20213;-36
2021/12/25 06:10:37;;;;;;;16.67;11.13;;;6.20;99.90;;;;;;4997063;28;20176;-37
2021/12/25 06:13:03;;;;;;;16.80;11.47;;;6.30;99.90;;;;;;4996867;28;20211;-36
2021/12/25 06:15:36;;;;;;;18.53;11.67;;;6.30;99.90;;;;;;4997624;28;20198;-36
2021/12/25 06:18:20;;;;;;;15.97;10.47;;;6.30;99.90;;;;;;5014552;28;20178;-36
2021/12/25 06:20:57;;;;;;;15.97;10.57;;;6.30;99.90;;;;;;5029692;28;20665;-37
2021/12/25 06:23:56;;;;;;;15.30;11.23;;;6.30;99.90;;;;;;5007851;28;20211;-36
2021/12/25 06:26:42;;;;;;;15.20;10.47;;;6.30;99.90;;;;;;4999387;28;20179;-36
2021/12/25 06:29:19;;;;;;;16.37;10.90;;;6.30;99.90;;;;;;5029452;28;20237;-36
2021/12/25 06:32:09;;;;;;;15.83;9.90;;;6.30;99.90;;;;;;5018227;28;20222;-36
2021/12/25 06:34:38;;;;;;;13.80;9.90;;;6.30;99.90;;;;;;5013116;28;20207;-37
2021/12/25 06:37:25;;;;;;;14.20;9.40;;;6.30;99.90;;;;;;5015556;28;20187;-37
2021/12/25 06:40:05;;;;;;;14.33;10.40;;;6.30;99.90;;;;;;5012694;28;20191;-36
2021/12/25 06:42:35;;;;;;;15.43;9.77;;;6.40;99.90;;;;;;5029176;28;20186;-36
2021/12/25 06:45:02;;;;;;;16.20;9.67;;;6.40;99.90;;;;;;4997069;28;20299;-36
2021/12/25 06:47:27;;;;;;;16.43;10.40;;;6.40;99.90;;;;;;5009400;28;20180;-36
2021/12/25 06:49:55;;;;;;;15.03;10.17;;;6.50;99.90;;;;;;4993183;28;20221;-36
2021/12/25 06:52:45;;;;;;;15.57;10.50;;;6.50;99.90;;;;;;4974433;28;20223;-36
2021/12/25 06:55:17;;;;;;;14.43;10.43;;;6.50;99.90;;;;;;4992770;28;20196;-36
2021/12/25 06:58:04;;;;;;;14.20;10.10;;;6.50;99.90;;;;;;4993112;28;20199;-36
2021/12/25 07:00:30;;;;;;;15.67;10.33;;;6.50;99.90;;;;;;4976761;28;20211;-37
2021/12/25 07:02:59;;;;;;;14.20;9.70;;;6.50;99.90;;;;;;4976891;28;20176;-37
2021/12/25 07:05:43;;;;;;;15.40;9.37;;;6.50;99.90;;;;;;5007279;28;20283;-36
2021/12/25 07:08:27;;;;;;;12.67;9.57;;;6.60;99.90;;;;;;5000806;28;20293;-36
2021/12/25 07:11:32;;;;;;;17.03;10.57;;;6.60;99.90;;;;;;5010871;28;20206;-36
2021/12/25 07:14:24;;;;;;;12.83;9.90;;;6.60;99.90;;;;;;4991041;28;20239;-37
2021/12/25 07:17:13;;;;;;;14.37;9.50;;;6.60;99.90;;;;;;5013978;28;20175;-37
2021/12/25 07:19:52;;;;;;;16.80;11.30;;;6.60;99.90;;;;;;5016938;28;20172;-39
2021/12/25 07:22:36;;;;;;;14.57;10.30;;;6.70;99.90;;;;;;5003281;28;20275;-40
2021/12/25 07:25:11;;;;;;;14.53;9.13;;;6.70;99.90;;;;;;5010610;28;20230;-39
2021/12/25 07:27:51;;;;;;;13.30;9.20;;;6.70;99.90;;;;;;5026528;28;20209;-39
2021/12/25 07:30:17;;;;;;;11.83;8.73;;;6.70;99.90;;;;;;5025145;28;20190;-41
2021/12/25 07:32:43;;;;;;;14.63;10.03;;;6.70;99.90;;;;;;5003048;28;20207;-37
2021/12/25 07:35:11;;;;;;;13.07;9.03;;;6.80;99.90;;;;;;5000845;28;20200;-42
2021/12/25 07:37:37;;;;;;;12.63;9.60;;;6.80;99.90;;;;;;5000128;28;20199;-37
2021/12/25 07:40:05;;;;;;;13.03;9.80;;;6.70;99.90;;;;;;5019544;28;20673;-37
2021/12/25 07:42:30;;;;;;;17.67;11.17;;;6.70;99.90;;;;;;5022352;28;20299;-37
2021/12/25 07:45:09;;;;;;;19.43;12.50;;;6.80;99.90;;;;;;5026168;28;20206;-37
2021/12/25 07:47:40;;;;;;;15.97;11.10;;;6.80;99.90;;;;;;4981708;28;20180;-40
2021/12/25 07:50:07;;;;;;;20.17;14.27;;;6.80;99.90;;;;;;4992005;28;20307;-38
2021/12/25 07:52:33;;;;;;;14.83;11.10;;;6.80;99.90;;;;;;4991709;28;20206;-37
2021/12/25 07:54:59;;;;;;;15.17;10.07;;;6.80;99.90;;;;;;4991118;28;20294;-38
2021/12/25 07:57:25;;;;;;;13.97;9.67;;;6.80;99.90;;;;;;4988205;28;20186;-40
2021/12/25 07:59:51;;;;;;;27.13;18.63;;;6.80;99.90;;;;;;5008113;28;20172;-38
2021/12/25 08:02:17;;;;;;;22.60;16.93;;;6.80;99.90;;;;;;4991962;28;20211;-39
2021/12/25 08:04:43;;;;;;;16.50;11.87;;;6.80;99.90;;;;;;5001359;28;20207;-36
2021/12/25 08:07:09;;;;;;;12.97;9.87;;;6.80;99.90;;;;;;5007840;28;20196;-37
2021/12/25 08:09:35;;;;;;;18.50;12.77;;;6.90;99.90;;;;;;4992384;28;20234;-37
2021/12/25 08:12:03;;;;;;;27.87;19.47;;;6.90;99.90;;;;;;5021349;28;20345;-40
2021/12/25 08:14:31;;;;;;;22.27;16.03;;;6.90;99.90;;;;;;5002604;28;20278;-37
2021/12/25 08:16:59;;;;;;;16.57;12.47;;;6.90;99.90;;;;;;5003313;28;20186;-37
2021/12/25 08:19:44;;;;;;;15.60;11.33;;;6.90;99.90;;;;;;5013190;28;20186;-38
2021/12/25 08:22:29;;;;;;;15.90;10.37;;;6.90;99.90;;;;;;5006566;28;20240;-37
2021/12/25 08:25:15;;;;;;;15.03;10.83;;;6.90;99.90;;;;;;5010587;28;20221;-37
2021/12/25 08:28:00;;;;;;;16.40;9.50;;;6.90;99.90;;;;;;5026331;28;20244;-36
2021/12/25 08:30:29;;;;;;;18.93;9.33;;;6.90;99.90;;;;;;5032828;28;20186;-37
2021/12/25 08:33:14;;;;;;;12.37;8.70;;;6.90;99.90;;;;;;5030885;28;20221;-40
2021/12/25 08:35:59;;;;;;;13.70;8.80;;;6.90;99.90;;;;;;5039656;28;20186;-37
2021/12/25 08:38:24;;;;;;;13.77;8.83;;;7.00;99.90;;;;;;5032600;28;20190;-36
2021/12/25 08:40:54;;;;;;;13.80;9.67;;;7.00;99.90;;;;;;5037495;28;20178;-37
2021/12/25 08:43:24;;;;;;;16.07;10.67;;;7.00;99.90;;;;;;5038599;28;20189;-36
2021/12/25 08:46:01;;;;;;;17.03;10.10;;;7.10;99.90;;;;;;5022952;28;20195;-37
2021/12/25 08:48:27;;;;;;;13.10;9.13;;;7.10;99.90;;;;;;5015181;28;20179;-37
2021/12/25 08:50:57;;;;;;;14.97;9.40;;;7.10;99.90;;;;;;5039123;28;20175;-36
2021/12/25 08:53:25;;;;;;;15.00;8.33;;;7.20;99.90;;;;;;5038238;28;20228;-37
2021/12/25 08:55:54;;;;;;;13.33;9.23;;;7.20;99.90;;;;;;5031087;28;20183;-37
2021/12/25 08:58:21;;;;;;;13.40;9.00;;;7.20;99.90;;;;;;5043125;28;20187;-37
2021/12/25 09:00:54;;;;;;;16.33;9.37;;;7.30;99.90;;;;;;5018492;28;20186;-37
2021/12/25 09:03:20;;;;;;;16.73;10.80;;;7.30;99.90;;;;;;5035132;28;20183;-37
2021/12/25 09:05:48;;;;;;;14.53;10.10;;;7.30;99.90;;;;;;5023286;28;20211;-40
2021/12/25 09:08:14;;;;;;;14.63;9.50;;;7.30;99.90;;;;;;5004496;28;20303;-40
2021/12/25 09:10:40;;;;;;;11.87;8.83;;;7.40;99.90;;;;;;5008568;28;20176;-37
2021/12/25 09:13:06;;;;;;;15.07;9.03;;;7.40;99.90;;;;;;5024041;28;20200;-36
2021/12/25 09:15:32;;;;;;;15.33;10.57;;;7.40;99.90;;;;;;5038975;28;20201;-36
2021/12/25 09:17:58;;;;;;;14.03;10.53;;;7.50;99.90;;;;;;5019543;28;20180;-38
2021/12/25 09:20:24;;;;;;;16.87;10.77;;;7.50;99.90;;;;;;5013442;28;20303;-36
2021/12/25 09:22:50;;;;;;;16.80;10.53;;;7.60;99.90;;;;;;5037501;28;20182;-37
2021/12/25 09:25:16;;;;;;;16.50;10.70;;;7.60;99.90;;;;;;5036275;28;21241;-39
2021/12/25 09:27:42;;;;;;;16.77;11.53;;;7.60;99.90;;;;;;5025404;28;20273;-37
2021/12/25 09:30:09;;;;;;;16.57;11.37;;;7.70;99.90;;;;;;5000892;28;20215;-38
2021/12/25 09:32:35;;;;;;;16.67;10.23;;;7.70;99.90;;;;;;5034489;28;20203;-36
2021/12/25 09:35:02;;;;;;;14.40;9.93;;;7.80;99.90;;;;;;5038574;28;20211;-38
2021/12/25 09:37:28;;;;;;;14.23;9.73;;;7.80;99.90;;;;;;5037909;28;20180;-37
2021/12/25 09:39:54;;;;;;;15.13;10.33;;;7.80;99.90;;;;;;5046269;28;20175;-37
2021/12/25 09:42:24;;;;;;;15.73;11.37;;;7.90;99.90;;;;;;5014008;28;20202;-37
2021/12/25 09:44:50;;;;;;;21.20;15.23;;;7.90;99.90;;;;;;5021954;28;20202;-37
2021/12/25 09:47:16;;;;;;;22.30;15.50;;;7.90;99.90;;;;;;5041152;28;20185;-36
2021/12/25 09:49:41;;;;;;;19.67;14.90;;;7.90;99.90;;;;;;5002305;28;20183;-37
2021/12/25 09:52:07;;;;;;;18.83;12.67;;;8.00;99.90;;;;;;5029053;28;20231;-37
2021/12/25 09:54:33;;;;;;;19.07;12.43;;;8.00;99.90;;;;;;5005350;28;20206;-36
2021/12/25 09:56:59;;;;;;;15.93;11.80;;;8.00;99.90;;;;;;5025540;28;20220;-38
2021/12/25 09:59:26;;;;;;;17.27;11.00;;;8.00;99.90;;;;;;5031614;28;20230;-36
2021/12/25 10:01:55;;;;;;;13.27;9.87;;;8.00;99.90;;;;;;5014962;28;20521;-37
2021/12/25 10:04:33;;;;;;;15.77;9.60;;;8.10;99.90;;;;;;5041894;28;20241;-37
2021/12/25 10:07:19;;;;;;;13.53;10.13;;;8.10;99.90;;;;;;5007326;28;20186;-36
2021/12/25 10:10:01;;;;;;;15.07;9.60;;;8.10;99.90;;;;;;5016432;28;20277;-37
2021/12/25 10:12:53;;;;;;;15.07;9.80;;;8.10;99.90;;;;;;5012614;28;20207;-37
2021/12/25 10:15:23;;;;;;;14.00;9.40;;;8.20;99.90;;;;;;5007813;28;20211;-37
2021/12/25 10:17:54;;;;;;;13.60;8.83;;;8.20;99.90;;;;;;4996754;28;20206;-37
2021/12/25 10:20:28;;;;;;;14.53;8.80;;;8.20;99.90;;;;;;5028764;28;20179;-37
2021/12/25 10:23:00;;;;;;;14.00;10.20;;;8.20;99.90;;;;;;4996533;28;20186;-39
2021/12/25 10:25:32;;;;;;;12.87;9.23;;;8.20;99.90;;;;;;4996435;28;20217;-37
2021/12/25 10:28:06;;;;;;;12.73;9.40;;;8.30;99.90;;;;;;5029442;28;20193;-37
2021/12/25 10:30:54;;;;;;;13.00;8.97;;;8.30;99.90;;;;;;4996544;28;20186;-38
2021/12/25 10:33:24;;;;;;;10.87;7.57;;;8.30;99.90;;;;;;5010375;28;20203;-37
2021/12/25 10:35:50;;;;;;;11.10;8.27;;;8.30;99.90;;;;;;5019113;28;20230;-38
2021/12/25 10:38:17;;;;;;;9.60;7.00;;;8.40;99.90;;;;;;5012247;28;20180;-36
2021/12/25 10:40:43;;;;;;;13.23;7.97;;;8.40;99.90;;;;;;5003980;28;20251;-38
2021/12/25 10:43:20;;;;;;;10.90;7.73;;;8.40;99.90;;;;;;5009860;28;20179;-38
2021/12/25 10:45:59;;;;;;;11.73;8.13;;;8.40;99.90;;;;;;4993127;28;20198;-37
2021/12/25 10:48:28;;;;;;;13.43;8.47;;;8.40;99.90;;;;;;4996220;28;20254;-37
2021/12/25 10:50:56;;;;;;;12.90;8.97;;;8.40;99.90;;;;;;5028438;28;20183;-35
2021/12/25 10:53:29;;;;;;;12.37;8.67;;;8.40;99.90;;;;;;4995923;28;20215;-35
2021/12/25 10:56:12;;;;;;;12.30;8.50;;;8.30;99.90;;;;;;4995861;28;20279;-35
2021/12/25 10:58:40;;;;;;;11.53;8.73;;;8.30;99.90;;;;;;5009172;28;20266;-35
2021/12/25 11:01:08;;;;;;;13.40;8.60;;;8.30;99.90;;;;;;5024613;28;20640;-35
2021/12/25 11:03:38;;;;;;;12.43;8.60;;;8.40;99.90;;;;;;5027139;28;20740;-35
2021/12/25 11:06:14;;;;;;;12.13;7.67;;;8.40;99.90;;;;;;4982025;28;20187;-37
2021/12/25 11:08:41;;;;;;;14.70;9.23;;;8.40;99.90;;;;;;5007076;28;20179;-35
2021/12/25 11:11:17;;;;;;;16.43;10.53;;;8.40;99.90;;;;;;5015764;28;20203;-35
2021/12/25 11:13:48;;;;;;;13.43;9.27;;;8.50;99.90;;;;;;5028017;28;20183;-35
2021/12/25 11:16:16;;;;;;;11.93;8.50;;;8.50;99.90;;;;;;4996500;28;20184;-35
2021/12/25 11:19:07;;;;;;;11.77;9.03;;;8.50;99.90;;;;;;5011972;28;20171;-35
2021/12/25 11:21:58;;;;;;;12.50;8.37;;;8.60;99.90;;;;;;5011391;28;20187;-35
2021/12/25 11:24:26;;;;;;;11.83;8.43;;;8.60;99.90;;;;;;5010013;28;20220;-35
2021/12/25 11:26:58;;;;;;;10.90;8.17;;;8.70;99.90;;;;;;5011439;28;20171;-36
2021/12/25 11:29:28;;;;;;;10.40;7.87;;;8.70;99.90;;;;;;5027759;28;20176;-35
2021/12/25 11:31:57;;;;;;;10.63;7.77;;;8.80;99.90;;;;;;4993971;28;20221;-38
2021/12/25 11:34:24;;;;;;;10.33;7.70;;;8.80;99.90;;;;;;4994886;28;20737;-35
2021/12/25 11:36:52;;;;;;;10.03;7.67;;;8.90;99.90;;;;;;5027162;28;20175;-35
2021/12/25 11:39:20;;;;;;;9.10;7.67;;;8.90;99.90;;;;;;5026000;28;20176;-35
2021/12/25 11:41:48;;;;;;;12.63;7.83;;;9.00;99.90;;;;;;4992167;28;20218;-35
2021/12/25 11:44:45;;;;;;;10.73;8.23;;;9.00;99.90;;;;;;5016562;28;20214;-35
2021/12/25 11:47:38;;;;;;;13.57;8.70;;;9.00;99.90;;;;;;4993107;28;20215;-36
2021/12/25 11:50:24;;;;;;;10.43;8.07;;;9.10;99.90;;;;;;5016054;28;20179;-35
2021/12/25 11:53:21;;;;;;;10.23;7.73;;;9.10;99.90;;;;;;4995025;28;20213;-36
2021/12/25 11:58:51;;;;;;;9.80;7.23;;;9.20;99.90;;;;;;5011132;28;20188;-35
2021/12/25 12:01:20;;;;;;;11.57;8.13;;;9.20;99.90;;;;;;5027425;28;20177;-37
2021/12/25 12:03:54;;;;;;;10.90;7.83;;;9.30;99.90;;;;;;4994611;28;20175;-36
2021/12/25 12:06:51;;;;;;;12.10;8.73;;;9.30;99.90;;;;;;5010908;28;20270;-36
2021/12/25 12:09:46;;;;;;;12.27;8.87;;;9.20;99.90;;;;;;5010637;28;20188;-38
2021/12/25 12:12:30;;;;;;;10.43;7.97;;;9.20;99.90;;;;;;5004008;28;20210;-35
2021/12/25 12:15:17;;;;;;;12.00;8.93;;;9.30;99.90;;;;;;5008800;28;20223;-39
2021/12/25 12:18:23;;;;;;;12.23;8.13;;;9.30;99.90;;;;;;5003206;28;20191;-37
2021/12/25 12:20:51;;;;;;;13.13;8.17;;;9.30;99.90;;;;;;4975331;28;20184;-37
2021/12/25 12:26:49;;;;;;;13.33;10.07;;;9.30;99.90;;;;;;5011862;28;20187;-36
2021/12/25 12:29:49;;;;;;;12.10;9.70;;;9.20;99.90;;;;;;5010299;28;20250;-37
2021/12/25 12:32:18;;;;;;;12.40;9.00;;;9.30;99.90;;;;;;4990599;28;20265;-37
2021/12/25 12:34:44;;;;;;;10.43;7.60;;;9.30;99.90;;;;;;4988060;28;20697;-35
2021/12/25 12:37:14;;;;;;;9.50;7.70;;;9.20;99.90;;;;;;5018027;28;20255;-38
2021/12/25 12:39:42;;;;;;;12.17;8.17;;;9.20;99.90;;;;;;4997998;28;20192;-36
2021/12/25 12:42:12;;;;;;;9.83;7.70;;;9.20;99.90;;;;;;5007477;28;20176;-35
2021/12/25 12:44:38;;;;;;;8.53;7.27;;;9.20;99.90;;;;;;5017253;28;20211;-36
2021/12/25 12:47:11;;;;;;;10.80;7.63;;;9.20;99.90;;;;;;5006498;28;20210;-36
2021/12/25 12:49:45;;;;;;;10.23;8.13;;;9.20;99.90;;;;;;5020236;28;20171;-36
2021/12/25 12:52:38;;;;;;;11.37;8.37;;;9.20;99.90;;;;;;5024811;28;20189;-36
2021/12/25 12:55:23;;;;;;;10.23;7.97;;;9.20;99.90;;;;;;5002820;28;20234;-35
2021/12/25 12:58:04;;;;;;;9.47;7.37;;;9.30;99.90;;;;;;5002447;28;20268;-37
2021/12/25 13:00:30;;;;;;;10.50;8.07;;;9.20;99.90;;;;;;5023966;28;20196;-35
2021/12/25 13:02:57;;;;;;;9.43;7.77;;;9.20;99.90;;;;;;5017864;28;20197;-38
2021/12/25 13:05:48;;;;;;;11.20;8.43;;;9.20;99.90;;;;;;5027573;23;20873;-88
2021/12/25 13:08:17;;;;;;;15.70;10.10;;;9.30;99.90;;;;;;5015435;28;20173;-88
2021/12/25 13:11:06;;;;;;;14.93;11.17;;;9.20;99.90;;;;;;5015298;28;20230;-73
2021/12/25 13:13:39;;;;;;;13.10;9.60;;;9.20;99.90;;;;;;5031578;28;20191;-78
2021/12/25 13:16:11;;;;;;;12.60;9.23;;;9.20;99.90;;;;;;5014479;28;20188;-87
2021/12/25 13:18:49;;;;;;;13.63;9.03;;;9.20;99.90;;;;;;5010758;28;20206;-88
2021/12/25 13:21:23;;;;;;;13.63;9.20;;;9.20;99.90;;;;;;5015021;28;20219;-88
2021/12/25 13:23:56;;;;;;;12.03;8.87;;;9.20;99.90;;;;;;5015352;28;20166;-87
2021/12/25 13:26:41;;;;;;;13.67;9.53;;;9.20;99.90;;;;;;5031601;28;20175;-88
2021/12/25 13:29:09;;;;;;;12.37;8.83;;;9.10;99.90;;;;;;5015189;28;20267;-82
2021/12/25 13:31:40;;;;;;;14.40;9.40;;;9.10;99.90;;;;;;5024001;28;20202;-88
2021/12/25 13:34:15;;;;;;;17.03;12.50;;;9.10;99.90;;;;;;5002273;28;20208;-87
2021/12/25 13:36:50;;;;;;;14.20;9.20;;;9.10;99.90;;;;;;5005173;28;20228;-88
2021/12/25 13:39:18;;;;;;;16.83;9.07;;;9.10;99.90;;;;;;5002664;28;20194;-88
2021/12/25 13:41:52;;;;;;;12.50;7.77;;;9.10;99.90;;;;;;5005459;28;20199;-88
2021/12/25 13:44:25;;;;;;;11.00;7.53;;;9.10;99.90;;;;;;5004020;28;20187;-87
2021/12/25 13:46:51;;;;;;;10.57;7.43;;;9.10;99.90;;;;;;5001032;28;20179;-88
2021/12/25 13:49:29;;;;;;;15.93;9.67;;;9.00;99.90;;;;;;5003107;28;20630;-88
2021/12/25 13:52:01;;;;;;;14.30;8.37;;;9.00;99.90;;;;;;5020417;28;20237;-87
2021/12/25 13:54:27;;;;;;;10.57;7.63;;;9.00;99.90;;;;;;5004533;28;20178;-88
2021/12/25 13:56:55;;;;;;;10.63;8.17;;;9.00;99.90;;;;;;5012330;28;20186;-87
2021/12/25 13:59:22;;;;;;;14.73;9.07;;;9.00;99.90;;;;;;5025505;28;20268;-88
2021/12/25 14:01:59;;;;;;;13.47;8.63;;;8.90;99.90;;;;;;5021891;28;20257;-88
2021/12/25 14:04:26;;;;;;;11.83;8.80;;;8.90;99.90;;;;;;5045780;28;20182;-87
2021/12/25 14:06:53;;;;;;;13.17;9.47;;;8.90;99.90;;;;;;5018295;28;20183;-87
2021/12/25 14:09:19;;;;;;;15.77;10.83;;;8.90;99.90;;;;;;5026443;28;20181;-87
2021/12/25 14:11:54;;;;;;;13.87;9.07;;;8.90;99.90;;;;;;5014457;28;20203;-88
2021/12/25 14:14:24;;;;;;;12.63;8.20;;;8.90;99.90;;;;;;5017412;28;20193;-88
2021/12/25 14:16:51;;;;;;;11.33;8.73;;;9.00;99.90;;;;;;5017604;28;20221;-88
2021/12/25 14:19:17;;;;;;;12.50;9.63;;;8.90;99.90;;;;;;5018452;28;20184;-87
2021/12/25 14:22:02;;;;;;;11.50;9.53;;;8.90;99.90;;;;;;5018109;28;20242;-87
2021/12/25 14:24:38;;;;;;;16.20;11.50;;;8.90;99.90;;;;;;5034704;28;20167;-87
2021/12/25 14:27:13;;;;;;;18.17;12.87;;;8.90;99.90;;;;;;5018311;28;20232;-87
2021/12/25 14:29:39;;;;;;;14.83;11.37;;;8.80;99.90;;;;;;5017967;28;20182;-87
2021/12/25 14:32:26;;;;;;;20.57;14.03;;;8.80;99.90;;;;;;5017591;28;20222;-88
2021/12/25 14:34:55;;;;;;;17.37;13.40;;;8.80;99.90;;;;;;5015441;28;20193;-88
2021/12/25 14:37:34;;;;;;;19.27;13.93;;;8.70;99.90;;;;;;5016591;28;20179;-88